sensor_id;sensor_type;location;lat;lon;timestamp;temperature;humidity
21031;DHT22;61072;47.808;7.636;2023-08-20T00:00:21;24.90;99.90
21031;DHT22;61072;47.808;7.636;2023-08-20T00:02:51;24.90;99.90
21031;DHT22;61072;47.808;7.636;2023-08-20T00:05:22;24.80;99.90
21031;DHT22;61072;47.808;7.636;2023-08-20T00:07:48;24.80;99.90
21031;DHT22;61072;47.808;7.636;2023-08-20T00:10:15;24.80;99.90
21031;DHT22;61072;47.808;7.636;2023-08-20T00:12:42;24.80;99.90
21031;DHT22;61072;47.808;7.636;2023-08-20T00:15:09;24.70;99.90
21031;DHT22;61072;47.808;7.636;2023-08-20T00:17:38;24.70;99.90
21031;DHT22;61072;47.808;7.636;2023-08-20T00:20:07;24.70;99.90
21031;DHT22;61072;47.808;7.636;2023-08-20T00:22:41;24.70;99.90
21031;DHT22;61072;47.808;7.636;2023-08-20T00:25:09;24.60;99.90
21031;DHT22;61072;47.808;7.636;2023-08-20T00:27:36;24.60;99.90
21031;DHT22;61072;47.808;7.636;2023-08-20T00:30:03;24.60;99.90
21031;DHT22;61072;47.808;7.636;2023-08-20T00:32:30;24.60;99.90
21031;DHT22;61072;47.808;7.636;2023-08-20T00:34:57;24.50;99.90
21031;DHT22;61072;47.808;7.636;2023-08-20T00:37:25;24.50;99.90
21031;DHT22;61072;47.808;7.636;2023-08-20T00:39:52;24.50;99.90
21031;DHT22;61072;47.808;7.636;2023-08-20T00:42:19;24.50;99.90
21031;DHT22;61072;47.808;7.636;2023-08-20T00:44:46;24.50;99.90
21031;DHT22;61072;47.808;7.636;2023-08-20T00:47:13;24.50;99.90
21031;DHT22;61072;47.808;7.636;2023-08-20T00:49:40;24.50;99.90
21031;DHT22;61072;47.808;7.636;2023-08-20T00:52:09;24.50;99.90
21031;DHT22;61072;47.808;7.636;2023-08-20T00:54:37;24.50;99.90
21031;DHT22;61072;47.808;7.636;2023-08-20T00:57:06;24.40;99.90
21031;DHT22;61072;47.808;7.636;2023-08-20T00:59:34;24.40;99.90
21031;DHT22;61072;47.808;7.636;2023-08-20T01:02:01;24.40;99.90
21031;DHT22;61072;47.808;7.636;2023-08-20T01:04:29;24.40;99.90
21031;DHT22;61072;47.808;7.636;2023-08-20T01:09:57;24.30;99.90
21031;DHT22;61072;47.808;7.636;2023-08-20T01:12:31;24.30;99.90
21031;DHT22;61072;47.808;7.636;2023-08-20T01:14:58;24.30;99.90
21031;DHT22;61072;47.808;7.636;2023-08-20T01:17:25;24.30;99.90
21031;DHT22;61072;47.808;7.636;2023-08-20T01:19:51;24.30;99.90
21031;DHT22;61072;47.808;7.636;2023-08-20T01:22:39;24.20;99.90
21031;DHT22;61072;47.808;7.636;2023-08-20T01:25:30;24.20;99.90
21031;DHT22;61072;47.808;7.636;2023-08-20T01:28:25;24.20;99.90
21031;DHT22;61072;47.808;7.636;2023-08-20T01:30:53;24.10;99.90
21031;DHT22;61072;47.808;7.636;2023-08-20T01:33:21;24.10;99.90
21031;DHT22;61072;47.808;7.636;2023-08-20T01:35:48;24.00;99.90
21031;DHT22;61072;47.808;7.636;2023-08-20T01:38:14;24.00;99.90
21031;DHT22;61072;47.808;7.636;2023-08-20T01:40:41;24.00;99.90
21031;DHT22;61072;47.808;7.636;2023-08-20T01:43:08;24.00;99.90
21031;DHT22;61072;47.808;7.636;2023-08-20T01:45:35;23.90;99.90
21031;DHT22;61072;47.808;7.636;2023-08-20T01:48:02;23.90;99.90
21031;DHT22;61072;47.808;7.636;2023-08-20T01:50:30;23.80;99.90
21031;DHT22;61072;47.808;7.636;2023-08-20T01:52:57;23.80;99.90
21031;DHT22;61072;47.808;7.636;2023-08-20T01:55:24;23.80;99.90
21031;DHT22;61072;47.808;7.636;2023-08-20T01:57:50;23.80;99.90
21031;DHT22;61072;47.808;7.636;2023-08-20T02:00:17;23.80;99.90
21031;DHT22;61072;47.808;7.636;2023-08-20T02:02:44;23.70;99.90
21031;DHT22;61072;47.808;7.636;2023-08-20T02:05:11;23.60;99.90
21031;DHT22;61072;47.808;7.636;2023-08-20T02:07:38;23.50;99.90
21031;DHT22;61072;47.808;7.636;2023-08-20T02:10:05;23.60;99.90
21031;DHT22;61072;47.808;7.636;2023-08-20T02:12:32;23.50;99.90
21031;DHT22;61072;47.808;7.636;2023-08-20T02:14:58;23.50;99.90
21031;DHT22;61072;47.808;7.636;2023-08-20T02:17:25;23.50;99.90
21031;DHT22;61072;47.808;7.636;2023-08-20T02:19:52;23.50;99.90
21031;DHT22;61072;47.808;7.636;2023-08-20T02:22:19;23.60;99.90
21031;DHT22;61072;47.808;7.636;2023-08-20T02:24:47;23.50;99.90
21031;DHT22;61072;47.808;7.636;2023-08-20T02:27:14;23.50;99.90
21031;DHT22;61072;47.808;7.636;2023-08-20T02:29:40;23.50;99.90
21031;DHT22;61072;47.808;7.636;2023-08-20T02:32:07;23.50;99.90
21031;DHT22;61072;47.808;7.636;2023-08-20T02:34:34;23.50;99.90
21031;DHT22;61072;47.808;7.636;2023-08-20T02:37:01;23.50;99.90
21031;DHT22;61072;47.808;7.636;2023-08-20T02:39:27;23.60;99.90
21031;DHT22;61072;47.808;7.636;2023-08-20T02:41:54;23.50;99.90
21031;DHT22;61072;47.808;7.636;2023-08-20T02:44:21;23.50;99.90
21031;DHT22;61072;47.808;7.636;2023-08-20T02:46:48;23.40;99.90
21031;DHT22;61072;47.808;7.636;2023-08-20T02:49:14;23.40;99.90
21031;DHT22;61072;47.808;7.636;2023-08-20T02:51:43;23.40;99.90
21031;DHT22;61072;47.808;7.636;2023-08-20T02:54:10;23.50;99.90
21031;DHT22;61072;47.808;7.636;2023-08-20T02:56:36;23.40;99.90
21031;DHT22;61072;47.808;7.636;2023-08-20T02:59:03;23.50;99.90
21031;DHT22;61072;47.808;7.636;2023-08-20T03:01:30;23.50;99.90
21031;DHT22;61072;47.808;7.636;2023-08-20T03:03:57;23.50;99.90
21031;DHT22;61072;47.808;7.636;2023-08-20T03:06:23;23.50;99.90
21031;DHT22;61072;47.808;7.636;2023-08-20T03:08:50;23.50;99.90
21031;DHT22;61072;47.808;7.636;2023-08-20T03:11:17;23.50;99.90
21031;DHT22;61072;47.808;7.636;2023-08-20T03:13:44;23.60;99.90
21031;DHT22;61072;47.808;7.636;2023-08-20T03:16:11;23.50;99.90
21031;DHT22;61072;47.808;7.636;2023-08-20T03:18:38;23.50;99.90
21031;DHT22;61072;47.808;7.636;2023-08-20T03:21:04;23.50;99.90
21031;DHT22;61072;47.808;7.636;2023-08-20T03:23:31;23.40;99.90
21031;DHT22;61072;47.808;7.636;2023-08-20T03:25:58;23.40;99.90
21031;DHT22;61072;47.808;7.636;2023-08-20T03:28:25;23.50;99.90
21031;DHT22;61072;47.808;7.636;2023-08-20T03:30:52;23.40;99.90
21031;DHT22;61072;47.808;7.636;2023-08-20T03:33:19;23.40;99.90
21031;DHT22;61072;47.808;7.636;2023-08-20T03:35:46;23.50;99.90
21031;DHT22;61072;47.808;7.636;2023-08-20T03:38:12;23.40;99.90
21031;DHT22;61072;47.808;7.636;2023-08-20T03:40:39;23.40;99.90
21031;DHT22;61072;47.808;7.636;2023-08-20T03:43:06;23.40;99.90
21031;DHT22;61072;47.808;7.636;2023-08-20T03:45:33;23.40;99.90
21031;DHT22;61072;47.808;7.636;2023-08-20T03:47:59;23.40;99.90
21031;DHT22;61072;47.808;7.636;2023-08-20T03:50:26;23.40;99.90
21031;DHT22;61072;47.808;7.636;2023-08-20T03:52:53;23.40;99.90
21031;DHT22;61072;47.808;7.636;2023-08-20T03:55:20;23.40;99.90
21031;DHT22;61072;47.808;7.636;2023-08-20T03:57:46;23.40;99.90
21031;DHT22;61072;47.808;7.636;2023-08-20T04:00:13;23.30;99.90
21031;DHT22;61072;47.808;7.636;2023-08-20T04:02:40;23.40;99.90
21031;DHT22;61072;47.808;7.636;2023-08-20T04:05:07;23.40;99.90
21031;DHT22;61072;47.808;7.636;2023-08-20T04:07:34;23.40;99.90
21031;DHT22;61072;47.808;7.636;2023-08-20T04:10:02;23.30;99.90
21031;DHT22;61072;47.808;7.636;2023-08-20T04:12:29;23.40;99.90
21031;DHT22;61072;47.808;7.636;2023-08-20T04:14:55;23.40;99.90
21031;DHT22;61072;47.808;7.636;2023-08-20T04:17:22;23.40;99.90
21031;DHT22;61072;47.808;7.636;2023-08-20T04:19:49;23.50;99.90
21031;DHT22;61072;47.808;7.636;2023-08-20T04:22:15;23.40;99.90
21031;DHT22;61072;47.808;7.636;2023-08-20T04:24:42;23.40;99.90
21031;DHT22;61072;47.808;7.636;2023-08-20T04:27:09;23.40;99.90
21031;DHT22;61072;47.808;7.636;2023-08-20T04:29:36;23.40;99.90
21031;DHT22;61072;47.808;7.636;2023-08-20T04:32:02;23.40;99.90
21031;DHT22;61072;47.808;7.636;2023-08-20T04:34:29;23.40;99.90
21031;DHT22;61072;47.808;7.636;2023-08-20T04:36:56;23.40;99.90
21031;DHT22;61072;47.808;7.636;2023-08-20T04:39:23;23.40;99.90
21031;DHT22;61072;47.808;7.636;2023-08-20T04:41:50;23.40;99.90
21031;DHT22;61072;47.808;7.636;2023-08-20T04:44:16;23.40;99.90
21031;DHT22;61072;47.808;7.636;2023-08-20T04:46:43;23.40;99.90
21031;DHT22;61072;47.808;7.636;2023-08-20T04:49:10;23.30;99.90
21031;DHT22;61072;47.808;7.636;2023-08-20T04:51:37;23.30;99.90
21031;DHT22;61072;47.808;7.636;2023-08-20T04:54:04;23.30;99.90
21031;DHT22;61072;47.808;7.636;2023-08-20T04:56:30;23.30;99.90
21031;DHT22;61072;47.808;7.636;2023-08-20T04:58:57;23.30;99.90
21031;DHT22;61072;47.808;7.636;2023-08-20T05:01:24;23.30;99.90
21031;DHT22;61072;47.808;7.636;2023-08-20T05:03:50;23.30;99.90
21031;DHT22;61072;47.808;7.636;2023-08-20T05:06:17;23.30;99.90
21031;DHT22;61072;47.808;7.636;2023-08-20T05:08:44;23.30;99.90
21031;DHT22;61072;47.808;7.636;2023-08-20T05:11:11;23.30;99.90
21031;DHT22;61072;47.808;7.636;2023-08-20T05:13:37;23.30;99.90
21031;DHT22;61072;47.808;7.636;2023-08-20T05:16:04;23.30;99.90
21031;DHT22;61072;47.808;7.636;2023-08-20T05:18:31;23.30;99.90
21031;DHT22;61072;47.808;7.636;2023-08-20T05:20:57;23.30;99.90
21031;DHT22;61072;47.808;7.636;2023-08-20T05:23:24;23.30;99.90
21031;DHT22;61072;47.808;7.636;2023-08-20T05:25:51;23.30;99.90
21031;DHT22;61072;47.808;7.636;2023-08-20T05:28:18;23.30;99.90
21031;DHT22;61072;47.808;7.636;2023-08-20T05:30:55;23.30;99.90
21031;DHT22;61072;47.808;7.636;2023-08-20T05:33:23;23.30;99.90
21031;DHT22;61072;47.808;7.636;2023-08-20T05:35:50;23.30;99.90
21031;DHT22;61072;47.808;7.636;2023-08-20T05:38:17;23.30;99.90
21031;DHT22;61072;47.808;7.636;2023-08-20T05:40:44;23.40;99.90
21031;DHT22;61072;47.808;7.636;2023-08-20T05:43:10;23.40;99.90
21031;DHT22;61072;47.808;7.636;2023-08-20T05:45:37;23.40;99.90
21031;DHT22;61072;47.808;7.636;2023-08-20T05:48:04;23.40;99.90
21031;DHT22;61072;47.808;7.636;2023-08-20T05:50:31;23.40;99.90
21031;DHT22;61072;47.808;7.636;2023-08-20T05:52:58;23.40;99.90
21031;DHT22;61072;47.808;7.636;2023-08-20T05:55:24;23.40;99.90
21031;DHT22;61072;47.808;7.636;2023-08-20T05:57:51;23.50;99.90
21031;DHT22;61072;47.808;7.636;2023-08-20T06:00:18;23.50;99.90
21031;DHT22;61072;47.808;7.636;2023-08-20T06:02:45;23.50;99.90
21031;DHT22;61072;47.808;7.636;2023-08-20T06:05:11;23.50;99.90
21031;DHT22;61072;47.808;7.636;2023-08-20T06:07:39;23.60;99.90
21031;DHT22;61072;47.808;7.636;2023-08-20T06:10:06;23.60;99.90
21031;DHT22;61072;47.808;7.636;2023-08-20T06:12:33;23.60;99.90
21031;DHT22;61072;47.808;7.636;2023-08-20T06:15:01;23.70;99.90
21031;DHT22;61072;47.808;7.636;2023-08-20T06:17:28;23.70;99.90
21031;DHT22;61072;47.808;7.636;2023-08-20T06:19:54;23.70;99.90
21031;DHT22;61072;47.808;7.636;2023-08-20T06:22:21;23.80;99.90
21031;DHT22;61072;47.808;7.636;2023-08-20T06:24:48;23.80;99.90
21031;DHT22;61072;47.808;7.636;2023-08-20T06:27:14;23.90;99.90
21031;DHT22;61072;47.808;7.636;2023-08-20T06:29:41;24.00;99.90
21031;DHT22;61072;47.808;7.636;2023-08-20T06:32:08;24.00;99.90
21031;DHT22;61072;47.808;7.636;2023-08-20T06:34:35;24.10;99.90
21031;DHT22;61072;47.808;7.636;2023-08-20T06:37:03;24.10;99.90
21031;DHT22;61072;47.808;7.636;2023-08-20T06:39:29;24.20;99.90
21031;DHT22;61072;47.808;7.636;2023-08-20T06:41:56;24.30;99.90
21031;DHT22;61072;47.808;7.636;2023-08-20T06:44:23;24.40;99.90
21031;DHT22;61072;47.808;7.636;2023-08-20T06:46:49;24.40;99.90
21031;DHT22;61072;47.808;7.636;2023-08-20T06:49:16;24.50;99.90
21031;DHT22;61072;47.808;7.636;2023-08-20T06:51:43;24.50;99.90
21031;DHT22;61072;47.808;7.636;2023-08-20T06:54:10;24.60;99.90
21031;DHT22;61072;47.808;7.636;2023-08-20T06:56:36;24.60;99.90
21031;DHT22;61072;47.808;7.636;2023-08-20T06:59:03;24.70;99.90
21031;DHT22;61072;47.808;7.636;2023-08-20T07:01:30;24.70;99.90
21031;DHT22;61072;47.808;7.636;2023-08-20T07:03:57;24.80;99.90
21031;DHT22;61072;47.808;7.636;2023-08-20T07:06:24;24.80;99.90
21031;DHT22;61072;47.808;7.636;2023-08-20T07:08:51;24.80;99.90
21031;DHT22;61072;47.808;7.636;2023-08-20T07:11:18;24.90;99.90
21031;DHT22;61072;47.808;7.636;2023-08-20T07:13:44;25.00;99.90
21031;DHT22;61072;47.808;7.636;2023-08-20T07:16:11;25.10;99.90
21031;DHT22;61072;47.808;7.636;2023-08-20T07:18:38;25.20;99.90
21031;DHT22;61072;47.808;7.636;2023-08-20T07:21:05;25.20;99.90
21031;DHT22;61072;47.808;7.636;2023-08-20T07:23:31;25.30;99.90
21031;DHT22;61072;47.808;7.636;2023-08-20T07:26:09;25.30;99.90
21031;DHT22;61072;47.808;7.636;2023-08-20T07:28:37;25.40;99.90
21031;DHT22;61072;47.808;7.636;2023-08-20T07:31:26;25.40;99.90
21031;DHT22;61072;47.808;7.636;2023-08-20T07:33:54;25.40;99.90
21031;DHT22;61072;47.808;7.636;2023-08-20T07:36:23;25.40;99.90
21031;DHT22;61072;47.808;7.636;2023-08-20T07:38:51;25.40;99.90
21031;DHT22;61072;47.808;7.636;2023-08-20T07:41:19;25.50;99.90
21031;DHT22;61072;47.808;7.636;2023-08-20T07:43:47;25.50;99.90
21031;DHT22;61072;47.808;7.636;2023-08-20T07:46:14;25.40;99.90
21031;DHT22;61072;47.808;7.636;2023-08-20T07:48:42;25.50;99.90
21031;DHT22;61072;47.808;7.636;2023-08-20T07:51:08;25.50;99.90
21031;DHT22;61072;47.808;7.636;2023-08-20T07:53:35;25.50;99.90
21031;DHT22;61072;47.808;7.636;2023-08-20T07:56:02;25.50;99.90
21031;DHT22;61072;47.808;7.636;2023-08-20T07:58:29;25.50;99.90
21031;DHT22;61072;47.808;7.636;2023-08-20T08:00:56;25.60;99.90
21031;DHT22;61072;47.808;7.636;2023-08-20T08:03:25;25.60;99.90
21031;DHT22;61072;47.808;7.636;2023-08-20T08:05:53;25.60;99.90
21031;DHT22;61072;47.808;7.636;2023-08-20T08:08:21;25.60;99.90
21031;DHT22;61072;47.808;7.636;2023-08-20T08:10:48;25.70;99.90
21031;DHT22;61072;47.808;7.636;2023-08-20T08:13:18;25.70;99.90
21031;DHT22;61072;47.808;7.636;2023-08-20T08:15:45;25.70;99.90
21031;DHT22;61072;47.808;7.636;2023-08-20T08:18:12;25.70;99.90
21031;DHT22;61072;47.808;7.636;2023-08-20T08:20:39;25.70;99.90
21031;DHT22;61072;47.808;7.636;2023-08-20T08:23:06;25.70;99.90
21031;DHT22;61072;47.808;7.636;2023-08-20T08:25:33;25.70;99.90
21031;DHT22;61072;47.808;7.636;2023-08-20T08:27:59;25.80;99.90
21031;DHT22;61072;47.808;7.636;2023-08-20T08:30:27;25.80;99.90
21031;DHT22;61072;47.808;7.636;2023-08-20T08:32:56;25.80;99.90
21031;DHT22;61072;47.808;7.636;2023-08-20T08:35:23;25.80;99.90
21031;DHT22;61072;47.808;7.636;2023-08-20T08:37:49;25.90;99.90
21031;DHT22;61072;47.808;7.636;2023-08-20T08:40:16;25.90;99.90
21031;DHT22;61072;47.808;7.636;2023-08-20T08:42:47;25.90;99.90
21031;DHT22;61072;47.808;7.636;2023-08-20T08:45:19;26.00;99.90
21031;DHT22;61072;47.808;7.636;2023-08-20T08:47:47;26.00;99.90
21031;DHT22;61072;47.808;7.636;2023-08-20T08:50:14;26.10;99.90
21031;DHT22;61072;47.808;7.636;2023-08-20T08:52:42;26.10;99.90
21031;DHT22;61072;47.808;7.636;2023-08-20T08:55:11;26.10;99.90
21031;DHT22;61072;47.808;7.636;2023-08-20T08:57:38;26.10;99.90
21031;DHT22;61072;47.808;7.636;2023-08-20T09:00:05;26.10;99.90
21031;DHT22;61072;47.808;7.636;2023-08-20T09:02:32;26.20;99.90
21031;DHT22;61072;47.808;7.636;2023-08-20T09:04:59;26.20;99.90
21031;DHT22;61072;47.808;7.636;2023-08-20T09:07:26;26.30;99.90
21031;DHT22;61072;47.808;7.636;2023-08-20T09:09:57;26.30;99.90
21031;DHT22;61072;47.808;7.636;2023-08-20T09:12:26;26.40;99.90
21031;DHT22;61072;47.808;7.636;2023-08-20T09:14:54;26.40;99.90
21031;DHT22;61072;47.808;7.636;2023-08-20T09:17:25;26.50;99.90
21031;DHT22;61072;47.808;7.636;2023-08-20T09:19:55;26.50;99.90
21031;DHT22;61072;47.808;7.636;2023-08-20T09:22:26;26.60;99.90
21031;DHT22;61072;47.808;7.636;2023-08-20T09:24:56;26.60;99.90
21031;DHT22;61072;47.808;7.636;2023-08-20T09:27:24;26.70;99.90
21031;DHT22;61072;47.808;7.636;2023-08-20T09:29:56;26.80;99.90
21031;DHT22;61072;47.808;7.636;2023-08-20T09:32:26;26.80;99.90
21031;DHT22;61072;47.808;7.636;2023-08-20T09:34:55;26.80;99.90
21031;DHT22;61072;47.808;7.636;2023-08-20T09:37:23;26.80;99.90
21031;DHT22;61072;47.808;7.636;2023-08-20T09:39:51;26.90;99.90
21031;DHT22;61072;47.808;7.636;2023-08-20T09:42:18;26.90;99.90
21031;DHT22;61072;47.808;7.636;2023-08-20T09:44:46;26.90;99.90
21031;DHT22;61072;47.808;7.636;2023-08-20T09:47:17;27.00;99.90
21031;DHT22;61072;47.808;7.636;2023-08-20T09:49:47;27.00;99.90
21031;DHT22;61072;47.808;7.636;2023-08-20T09:52:28;27.00;99.90
21031;DHT22;61072;47.808;7.636;2023-08-20T09:55:08;27.10;99.90
21031;DHT22;61072;47.808;7.636;2023-08-20T09:57:39;27.10;99.90
21031;DHT22;61072;47.808;7.636;2023-08-20T10:00:11;27.20;99.90
21031;DHT22;61072;47.808;7.636;2023-08-20T10:02:39;27.20;99.90
21031;DHT22;61072;47.808;7.636;2023-08-20T10:05:10;27.20;99.90
21031;DHT22;61072;47.808;7.636;2023-08-20T10:07:37;27.30;99.90
21031;DHT22;61072;47.808;7.636;2023-08-20T10:10:06;27.30;99.90
21031;DHT22;61072;47.808;7.636;2023-08-20T10:12:34;27.30;99.90
21031;DHT22;61072;47.808;7.636;2023-08-20T10:15:02;27.30;99.90
21031;DHT22;61072;47.808;7.636;2023-08-20T10:17:33;27.40;99.90
21031;DHT22;61072;47.808;7.636;2023-08-20T10:20:02;27.50;99.90
21031;DHT22;61072;47.808;7.636;2023-08-20T10:25:00;27.50;99.90
21031;DHT22;61072;47.808;7.636;2023-08-20T10:27:35;27.60;99.90
21031;DHT22;61072;47.808;7.636;2023-08-20T10:30:08;27.70;99.90
21031;DHT22;61072;47.808;7.636;2023-08-20T10:32:46;27.80;99.90
21031;DHT22;61072;47.808;7.636;2023-08-20T10:35:15;27.90;99.90
21031;DHT22;61072;47.808;7.636;2023-08-20T10:38:18;27.90;99.90
21031;DHT22;61072;47.808;7.636;2023-08-20T10:43:23;28.10;99.90
21031;DHT22;61072;47.808;7.636;2023-08-20T10:46:05;28.20;99.90
21031;DHT22;61072;47.808;7.636;2023-08-20T10:48:38;28.30;99.90
21031;DHT22;61072;47.808;7.636;2023-08-20T10:51:12;28.30;99.90
21031;DHT22;61072;47.808;7.636;2023-08-20T10:53:41;28.40;99.90
21031;DHT22;61072;47.808;7.636;2023-08-20T10:56:16;28.40;99.90
21031;DHT22;61072;47.808;7.636;2023-08-20T10:58:47;28.40;99.90
21031;DHT22;61072;47.808;7.636;2023-08-20T11:01:19;28.50;99.90
21031;DHT22;61072;47.808;7.636;2023-08-20T11:03:49;28.60;99.90
21031;DHT22;61072;47.808;7.636;2023-08-20T11:06:17;28.60;99.90
21031;DHT22;61072;47.808;7.636;2023-08-20T11:08:45;28.70;99.90
21031;DHT22;61072;47.808;7.636;2023-08-20T11:11:12;28.80;99.90
21031;DHT22;61072;47.808;7.636;2023-08-20T11:13:39;28.90;99.90
21031;DHT22;61072;47.808;7.636;2023-08-20T11:16:07;28.90;99.90
21031;DHT22;61072;47.808;7.636;2023-08-20T11:18:34;28.90;99.90
21031;DHT22;61072;47.808;7.636;2023-08-20T11:21:01;28.90;99.90
21031;DHT22;61072;47.808;7.636;2023-08-20T11:23:29;29.00;99.90
21031;DHT22;61072;47.808;7.636;2023-08-20T11:25:57;28.90;99.90
21031;DHT22;61072;47.808;7.636;2023-08-20T11:28:25;29.00;99.90
21031;DHT22;61072;47.808;7.636;2023-08-20T11:30:53;29.00;99.90
21031;DHT22;61072;47.808;7.636;2023-08-20T11:33:20;29.00;99.90
21031;DHT22;61072;47.808;7.636;2023-08-20T11:35:48;29.00;99.90
21031;DHT22;61072;47.808;7.636;2023-08-20T11:38:15;29.10;99.90
21031;DHT22;61072;47.808;7.636;2023-08-20T11:40:41;29.00;99.90
21031;DHT22;61072;47.808;7.636;2023-08-20T11:43:09;29.10;99.90
21031;DHT22;61072;47.808;7.636;2023-08-20T11:45:44;29.10;99.90
21031;DHT22;61072;47.808;7.636;2023-08-20T11:48:11;29.10;99.90
21031;DHT22;61072;47.808;7.636;2023-08-20T11:50:38;29.10;99.90
21031;DHT22;61072;47.808;7.636;2023-08-20T11:53:05;29.20;99.90
21031;DHT22;61072;47.808;7.636;2023-08-20T11:55:31;29.20;99.90
21031;DHT22;61072;47.808;7.636;2023-08-20T11:57:58;29.30;99.90
21031;DHT22;61072;47.808;7.636;2023-08-20T12:00:30;29.40;99.90
21031;DHT22;61072;47.808;7.636;2023-08-20T12:02:58;29.40;99.90
21031;DHT22;61072;47.808;7.636;2023-08-20T12:05:28;29.40;99.90
21031;DHT22;61072;47.808;7.636;2023-08-20T12:07:56;29.40;99.90
21031;DHT22;61072;47.808;7.636;2023-08-20T12:10:26;29.50;99.90
21031;DHT22;61072;47.808;7.636;2023-08-20T12:12:53;29.50;99.90
21031;DHT22;61072;47.808;7.636;2023-08-20T12:15:21;29.70;99.90
21031;DHT22;61072;47.808;7.636;2023-08-20T12:18:01;29.70;99.90
21031;DHT22;61072;47.808;7.636;2023-08-20T12:20:28;29.80;99.90
21031;DHT22;61072;47.808;7.636;2023-08-20T12:22:58;29.70;99.90
21031;DHT22;61072;47.808;7.636;2023-08-20T12:25:26;29.80;99.90
21031;DHT22;61072;47.808;7.636;2023-08-20T12:27:53;29.80;99.90
21031;DHT22;61072;47.808;7.636;2023-08-20T12:30:19;29.80;99.90
21031;DHT22;61072;47.808;7.636;2023-08-20T12:32:47;29.90;99.90
21031;DHT22;61072;47.808;7.636;2023-08-20T12:35:13;29.90;99.90
21031;DHT22;61072;47.808;7.636;2023-08-20T12:37:40;29.90;99.90
21031;DHT22;61072;47.808;7.636;2023-08-20T12:40:07;30.00;99.90
21031;DHT22;61072;47.808;7.636;2023-08-20T12:42:37;30.10;99.90
21031;DHT22;61072;47.808;7.636;2023-08-20T12:45:07;30.10;99.90
21031;DHT22;61072;47.808;7.636;2023-08-20T12:47:34;30.10;99.90
21031;DHT22;61072;47.808;7.636;2023-08-20T12:50:02;30.10;99.90
21031;DHT22;61072;47.808;7.636;2023-08-20T12:52:32;30.10;99.90
21031;DHT22;61072;47.808;7.636;2023-08-20T12:54:59;30.10;99.90
21031;DHT22;61072;47.808;7.636;2023-08-20T12:57:26;30.20;99.90
21031;DHT22;61072;47.808;7.636;2023-08-20T12:59:52;30.20;99.90
21031;DHT22;61072;47.808;7.636;2023-08-20T13:02:19;30.30;99.90
21031;DHT22;61072;47.808;7.636;2023-08-20T13:04:47;30.30;99.90
21031;DHT22;61072;47.808;7.636;2023-08-20T13:07:14;30.40;99.90
21031;DHT22;61072;47.808;7.636;2023-08-20T13:09:41;30.40;99.90
21031;DHT22;61072;47.808;7.636;2023-08-20T13:12:10;30.50;99.90
21031;DHT22;61072;47.808;7.636;2023-08-20T13:14:40;30.50;99.90
21031;DHT22;61072;47.808;7.636;2023-08-20T13:17:08;30.50;99.90
21031;DHT22;61072;47.808;7.636;2023-08-20T13:19:34;30.60;99.90
21031;DHT22;61072;47.808;7.636;2023-08-20T13:22:01;30.60;99.90
21031;DHT22;61072;47.808;7.636;2023-08-20T13:24:28;30.60;99.90
21031;DHT22;61072;47.808;7.636;2023-08-20T13:26:55;30.60;99.90
21031;DHT22;61072;47.808;7.636;2023-08-20T13:29:21;30.60;99.90
21031;DHT22;61072;47.808;7.636;2023-08-20T13:31:48;30.60;99.90
21031;DHT22;61072;47.808;7.636;2023-08-20T13:34:15;30.70;99.90
21031;DHT22;61072;47.808;7.636;2023-08-20T13:36:42;30.80;99.90
21031;DHT22;61072;47.808;7.636;2023-08-20T13:39:08;30.80;99.90
21031;DHT22;61072;47.808;7.636;2023-08-20T13:41:35;30.80;99.90
21031;DHT22;61072;47.808;7.636;2023-08-20T13:44:02;30.80;99.90
21031;DHT22;61072;47.808;7.636;2023-08-20T13:46:29;30.90;99.90
21031;DHT22;61072;47.808;7.636;2023-08-20T13:48:56;30.90;99.90
21031;DHT22;61072;47.808;7.636;2023-08-20T13:51:23;31.00;99.90
21031;DHT22;61072;47.808;7.636;2023-08-20T13:53:50;31.00;99.90
21031;DHT22;61072;47.808;7.636;2023-08-20T13:56:16;31.00;99.90
21031;DHT22;61072;47.808;7.636;2023-08-20T13:58:43;31.00;99.90
21031;DHT22;61072;47.808;7.636;2023-08-20T14:01:10;31.00;99.90
21031;DHT22;61072;47.808;7.636;2023-08-20T14:03:38;31.10;99.90
21031;DHT22;61072;47.808;7.636;2023-08-20T14:06:04;31.10;99.90
21031;DHT22;61072;47.808;7.636;2023-08-20T14:08:32;31.10;99.90
21031;DHT22;61072;47.808;7.636;2023-08-20T14:10:59;31.20;99.90
21031;DHT22;61072;47.808;7.636;2023-08-20T14:13:25;31.30;99.90
21031;DHT22;61072;47.808;7.636;2023-08-20T14:15:52;31.30;99.90
21031;DHT22;61072;47.808;7.636;2023-08-20T14:18:19;31.40;99.90
21031;DHT22;61072;47.808;7.636;2023-08-20T14:20:46;31.50;99.90
21031;DHT22;61072;47.808;7.636;2023-08-20T14:23:12;31.50;99.90
21031;DHT22;61072;47.808;7.636;2023-08-20T14:25:39;31.50;99.90
21031;DHT22;61072;47.808;7.636;2023-08-20T14:28:08;31.50;99.90
21031;DHT22;61072;47.808;7.636;2023-08-20T14:30:38;31.50;99.90
21031;DHT22;61072;47.808;7.636;2023-08-20T14:33:05;31.50;99.90
21031;DHT22;61072;47.808;7.636;2023-08-20T14:35:33;31.50;99.90
21031;DHT22;61072;47.808;7.636;2023-08-20T14:37:59;31.50;99.90
21031;DHT22;61072;47.808;7.636;2023-08-20T14:40:26;31.50;99.90
21031;DHT22;61072;47.808;7.636;2023-08-20T14:42:53;31.60;99.90
21031;DHT22;61072;47.808;7.636;2023-08-20T14:45:19;31.60;99.90
21031;DHT22;61072;47.808;7.636;2023-08-20T14:47:46;31.60;99.90
21031;DHT22;61072;47.808;7.636;2023-08-20T14:50:13;31.60;99.90
21031;DHT22;61072;47.808;7.636;2023-08-20T14:52:40;31.60;99.90
21031;DHT22;61072;47.808;7.636;2023-08-20T14:55:06;31.60;99.90
21031;DHT22;61072;47.808;7.636;2023-08-20T14:57:36;31.60;99.90
21031;DHT22;61072;47.808;7.636;2023-08-20T15:00:18;31.60;99.90
21031;DHT22;61072;47.808;7.636;2023-08-20T15:02:45;31.50;99.90
21031;DHT22;61072;47.808;7.636;2023-08-20T15:05:12;31.50;99.90
21031;DHT22;61072;47.808;7.636;2023-08-20T15:07:39;31.40;99.90
21031;DHT22;61072;47.808;7.636;2023-08-20T15:10:06;31.40;99.90
21031;DHT22;61072;47.808;7.636;2023-08-20T15:12:35;31.40;99.90
21031;DHT22;61072;47.808;7.636;2023-08-20T15:15:05;31.40;99.90
21031;DHT22;61072;47.808;7.636;2023-08-20T15:17:32;31.40;99.90
21031;DHT22;61072;47.808;7.636;2023-08-20T15:20:00;31.30;99.90
21031;DHT22;61072;47.808;7.636;2023-08-20T15:22:26;31.40;99.90
21031;DHT22;61072;47.808;7.636;2023-08-20T15:24:54;31.30;99.90
21031;DHT22;61072;47.808;7.636;2023-08-20T15:27:23;31.30;99.90
21031;DHT22;61072;47.808;7.636;2023-08-20T15:29:51;31.30;99.90
21031;DHT22;61072;47.808;7.636;2023-08-20T15:32:18;31.30;99.90
21031;DHT22;61072;47.808;7.636;2023-08-20T15:34:44;31.30;99.90
21031;DHT22;61072;47.808;7.636;2023-08-20T15:37:11;31.20;99.90
21031;DHT22;61072;47.808;7.636;2023-08-20T15:39:39;31.20;99.90
21031;DHT22;61072;47.808;7.636;2023-08-20T15:42:06;31.20;99.90